PWSweather.com
Personal Weather Stations
Station Observations
NYERIN
South Erin, Erin, NY 14838-9545

South ErinErin, NY 14838-9545

Lat: 42.150605, Lon: -76.654038

Elevation: 1663

Station Type: Davis VP Pro II

http://southerin-ny.org/wx.php

Latest ConditionsUpdated 6:42:01 PM EDT Sunday, Jun 26, 2016
Currently Today's Max Today's Min Today's Average
Temperature 80.6°F27.0°C 84.5°F29.2°C 60.2°F15.7°C 73.1°F22.8°C
Dew Point 61.3°F16.3°C 65.7°F18.7°C 59.4°F15.2°C 61.8°F16.6°C
Winds 1.2 mph S1.9 kmh S 6.9 mph SW11.1 kmh SW - 1.9 mph 3.1 kmh
Wind Gusts 6.9 mph11.1 kmh 15.0 mph24.1 kmh - -
Humidity 52% 100% 46% 71%
Pressure 30.01 in1016.3 mb 30.14 in1020.7 mb 30.01 in1016.3 mb -
Hour Temp Dew Point Humidity Winds Wind Gusts Pressure Precip Precip Rate Daily Precip Total
06:42 PM 80.6°F27.0°C 61.3°F16.3°C 52% 1.2 mph S1.9 kmh S 6.9 mph11.1 kmh 30.01 in1016.3 mb - 0.00 in0.0 mm 0.00 in0.0 mm
06:32 PM 81.1°F27.3°C 61.8°F16.6°C 52% 3.5 mph SSW5.6 kmh SSW 9.2 mph14.8 kmh 30.01 in1016.3 mb - 0.00 in0.0 mm 0.00 in0.0 mm
06:22 PM 81.4°F27.4°C 61.0°F16.1°C 50% 3.5 mph S5.6 kmh S 5.8 mph9.3 kmh 30.02 in1016.6 mb - 0.00 in0.0 mm 0.00 in0.0 mm
06:12 PM 81.8°F27.7°C 61.3°F16.3°C 50% 3.5 mph S5.6 kmh S 6.9 mph11.1 kmh 30.02 in1016.6 mb - 0.00 in0.0 mm 0.00 in0.0 mm
06:02 PM 82.0°F27.8°C 61.5°F16.4°C 50% 3.5 mph S5.6 kmh S 6.9 mph11.1 kmh 30.02 in1016.6 mb - 0.00 in0.0 mm 0.00 in0.0 mm
05:52 PM 82.4°F28.0°C 61.3°F16.3°C 49% 4.6 mph SSE7.4 kmh SSE 11.5 mph18.5 kmh 30.02 in1016.6 mb - 0.00 in0.0 mm 0.00 in0.0 mm
05:42 PM 82.8°F28.2°C 61.7°F16.5°C 49% 2.3 mph SW3.7 kmh SW 6.9 mph11.1 kmh 30.02 in1016.6 mb - 0.00 in0.0 mm 0.00 in0.0 mm
05:32 PM 82.8°F28.2°C 62.3°F16.8°C 50% 4.6 mph S7.4 kmh S 8.1 mph13.0 kmh 30.03 in1016.9 mb - 0.00 in0.0 mm 0.00 in0.0 mm
05:22 PM 83.0°F28.3°C 61.3°F16.3°C 48% 2.3 mph S3.7 kmh S 3.5 mph5.6 kmh 30.04 in1017.3 mb - 0.00 in0.0 mm 0.00 in0.0 mm
05:12 PM 83.4°F28.6°C 61.7°F16.5°C 48% 5.8 mph SSE9.3 kmh SSE 9.2 mph14.8 kmh 30.04 in1017.3 mb - 0.00 in0.0 mm 0.00 in0.0 mm
05:02 PM 83.4°F28.6°C 62.8°F17.1°C 50% 3.5 mph S5.6 kmh S 8.1 mph13.0 kmh 30.04 in1017.3 mb - 0.00 in0.0 mm 0.00 in0.0 mm
04:52 PM 83.4°F28.6°C 62.2°F16.8°C 49% 2.3 mph SSW3.7 kmh SSW 4.6 mph7.4 kmh 30.04 in1017.3 mb - 0.00 in0.0 mm 0.00 in0.0 mm
04:42 PM 83.0°F28.3°C 62.5°F16.9°C 50% 4.6 mph SSW7.4 kmh SSW 6.9 mph11.1 kmh 30.05 in1017.6 mb - 0.00 in0.0 mm 0.00 in0.0 mm
04:32 PM 83.6°F28.7°C 62.4°F16.9°C 49% 2.3 mph S3.7 kmh S 3.5 mph5.6 kmh 30.05 in1017.6 mb - 0.00 in0.0 mm 0.00 in0.0 mm
04:22 PM 83.6°F28.7°C 62.4°F16.9°C 49% 4.6 mph SSW7.4 kmh SSW 5.8 mph9.3 kmh 30.05 in1017.6 mb - 0.00 in0.0 mm 0.00 in0.0 mm
04:12 PM 83.1°F28.4°C 62.5°F16.9°C 50% 4.6 mph SSE7.4 kmh SSE 11.5 mph18.5 kmh 30.05 in1017.6 mb - 0.00 in0.0 mm 0.00 in0.0 mm
04:02 PM 82.4°F28.0°C 62.5°F16.9°C 51% 3.5 mph S5.6 kmh S 6.9 mph11.1 kmh 30.06 in1017.9 mb - 0.00 in0.0 mm 0.00 in0.0 mm
03:52 PM 83.0°F28.3°C 62.4°F16.9°C 50% 3.5 mph SSW5.6 kmh SSW 6.9 mph11.1 kmh 30.05 in1017.6 mb - 0.00 in0.0 mm 0.00 in0.0 mm
03:42 PM 83.4°F28.6°C 61.1°F16.2°C 47% 3.5 mph SW5.6 kmh SW 10.4 mph16.7 kmh 30.06 in1017.9 mb - 0.00 in0.0 mm 0.00 in0.0 mm
03:32 PM 83.6°F28.7°C 63.0°F17.2°C 50% 5.8 mph S9.3 kmh S 15.0 mph24.1 kmh 30.06 in1017.9 mb - 0.00 in0.0 mm 0.00 in0.0 mm
03:22 PM 83.6°F28.7°C 62.4°F16.9°C 49% 2.3 mph S3.7 kmh S 3.5 mph5.6 kmh 30.07 in1018.3 mb - 0.00 in0.0 mm 0.00 in0.0 mm
03:12 PM 84.0°F28.9°C 61.6°F16.4°C 47% 3.5 mph SE5.6 kmh SE 5.8 mph9.3 kmh 30.07 in1018.3 mb - 0.00 in0.0 mm 0.00 in0.0 mm
03:02 PM 84.1°F28.9°C 62.3°F16.8°C 48% 4.6 mph S7.4 kmh S 11.5 mph18.5 kmh 30.08 in1018.6 mb - 0.00 in0.0 mm 0.00 in0.0 mm
02:52 PM 84.5°F29.2°C 61.4°F16.3°C 46% 4.6 mph S7.4 kmh S 8.1 mph13.0 kmh 30.07 in1018.3 mb - 0.00 in0.0 mm 0.00 in0.0 mm
02:42 PM 84.3°F29.1°C 62.5°F16.9°C 48% 5.8 mph S9.3 kmh S 8.1 mph13.0 kmh 30.08 in1018.6 mb - 0.00 in0.0 mm 0.00 in0.0 mm
02:32 PM 84.1°F28.9°C 62.3°F16.8°C 48% 4.6 mph S7.4 kmh S 9.2 mph14.8 kmh 30.08 in1018.6 mb - 0.00 in0.0 mm 0.00 in0.0 mm
02:22 PM 84.0°F28.9°C 61.0°F16.1°C 46% 4.6 mph S7.4 kmh S 8.1 mph13.0 kmh 30.08 in1018.6 mb - 0.00 in0.0 mm 0.00 in0.0 mm
02:12 PM 84.1°F28.9°C 62.3°F16.8°C 48% 4.6 mph S7.4 kmh S 5.8 mph9.3 kmh 30.09 in1019.0 mb - 0.00 in0.0 mm 0.00 in0.0 mm
02:02 PM 83.3°F28.5°C 62.2°F16.8°C 49% 3.5 mph S5.6 kmh S 5.8 mph9.3 kmh 30.09 in1019.0 mb - 0.00 in0.0 mm 0.00 in0.0 mm
01:52 PM 83.5°F28.6°C 61.2°F16.2°C 47% 5.8 mph SW9.3 kmh SW 8.1 mph13.0 kmh 30.09 in1019.0 mb - 0.00 in0.0 mm 0.00 in0.0 mm
01:42 PM 83.0°F28.3°C 61.9°F16.6°C 49% 4.6 mph S7.4 kmh S 11.5 mph18.5 kmh 30.09 in1019.0 mb - 0.00 in0.0 mm 0.00 in0.0 mm
01:32 PM 83.4°F28.6°C 62.8°F17.1°C 50% 4.6 mph SW7.4 kmh SW 12.7 mph20.4 kmh 30.10 in1019.3 mb - 0.00 in0.0 mm 0.00 in0.0 mm
01:22 PM 82.6°F28.1°C 62.1°F16.7°C 50% 4.6 mph SSW7.4 kmh SSW 8.1 mph13.0 kmh 30.10 in1019.3 mb - 0.00 in0.0 mm 0.00 in0.0 mm
01:12 PM 82.6°F28.1°C 62.1°F16.7°C 50% 2.3 mph S3.7 kmh S 4.6 mph7.4 kmh 30.11 in1019.6 mb - 0.00 in0.0 mm 0.00 in0.0 mm
01:02 PM 82.8°F28.2°C 62.3°F16.8°C 50% 2.3 mph S3.7 kmh S 4.6 mph7.4 kmh 30.11 in1019.6 mb - 0.00 in0.0 mm 0.00 in0.0 mm
12:52 PM 82.6°F28.1°C 62.1°F16.7°C 50% 6.9 mph SW11.1 kmh SW 12.7 mph20.4 kmh 30.11 in1019.6 mb - 0.00 in0.0 mm 0.00 in0.0 mm
12:42 PM 82.4°F28.0°C 61.3°F16.3°C 49% 3.5 mph S5.6 kmh S 4.6 mph7.4 kmh 30.11 in1019.6 mb - 0.00 in0.0 mm 0.00 in0.0 mm
12:32 PM 82.3°F27.9°C 61.8°F16.6°C 50% 2.3 mph S3.7 kmh S 6.9 mph11.1 kmh 30.12 in1020.0 mb - 0.00 in0.0 mm 0.00 in0.0 mm
12:22 PM 81.6°F27.6°C 61.2°F16.2°C 50% 1.2 mph S1.9 kmh S 3.5 mph5.6 kmh 30.12 in1020.0 mb - 0.00 in0.0 mm 0.00 in0.0 mm
12:12 PM 81.2°F27.3°C 61.9°F16.6°C 52% 4.6 mph SSE7.4 kmh SSE 11.5 mph18.5 kmh 30.12 in1020.0 mb - 0.00 in0.0 mm 0.00 in0.0 mm
12:02 PM 81.1°F27.3°C 60.7°F15.9°C 50% 3.5 mph SW5.6 kmh SW 6.9 mph11.1 kmh 30.12 in1020.0 mb - 0.00 in0.0 mm 0.00 in0.0 mm
11:52 AM 80.9°F27.2°C 61.1°F16.2°C 51% 3.5 mph S5.6 kmh S 8.1 mph13.0 kmh 30.13 in1020.3 mb - 0.00 in0.0 mm 0.00 in0.0 mm
11:42 AM 80.7°F27.1°C 62.5°F16.9°C 54% 3.5 mph SSW5.6 kmh SSW 9.2 mph14.8 kmh 30.13 in1020.3 mb - 0.00 in0.0 mm 0.00 in0.0 mm
11:32 AM 80.5°F26.9°C 62.3°F16.8°C 54% 3.5 mph S5.6 kmh S 9.2 mph14.8 kmh 30.13 in1020.3 mb - 0.00 in0.0 mm 0.00 in0.0 mm
11:22 AM 80.8°F27.1°C 63.7°F17.6°C 56% 3.5 mph SSW5.6 kmh SSW 5.8 mph9.3 kmh 30.13 in1020.3 mb - 0.00 in0.0 mm 0.00 in0.0 mm
11:12 AM 80.7°F27.1°C 64.1°F17.8°C 57% 3.5 mph W5.6 kmh W 5.8 mph9.3 kmh 30.13 in1020.3 mb - 0.00 in0.0 mm 0.00 in0.0 mm
11:02 AM 80.3°F26.8°C 63.7°F17.6°C 57% 4.6 mph S7.4 kmh S 4.6 mph7.4 kmh 30.13 in1020.3 mb - 0.00 in0.0 mm 0.00 in0.0 mm
10:52 AM 79.9°F26.6°C 64.8°F18.2°C 60% 1.2 mph WSW1.9 kmh WSW 2.3 mph3.7 kmh 30.14 in1020.7 mb - 0.00 in0.0 mm 0.00 in0.0 mm
10:42 AM 79.3°F26.3°C 64.7°F18.2°C 61% 2.3 mph SW3.7 kmh SW 5.8 mph9.3 kmh 30.13 in1020.3 mb - 0.00 in0.0 mm 0.00 in0.0 mm
10:32 AM 78.8°F26.0°C 64.7°F18.2°C 62% 2.3 mph S3.7 kmh S 6.9 mph11.1 kmh 30.13 in1020.3 mb - 0.00 in0.0 mm 0.00 in0.0 mm
10:22 AM 77.9°F25.5°C 64.7°F18.2°C 64% 1.2 mph S1.9 kmh S 5.8 mph9.3 kmh 30.13 in1020.3 mb - 0.00 in0.0 mm 0.00 in0.0 mm
10:12 AM 77.3°F25.2°C 64.6°F18.1°C 65% 2.3 mph S3.7 kmh S 6.9 mph11.1 kmh 30.13 in1020.3 mb - 0.00 in0.0 mm 0.00 in0.0 mm
10:02 AM 76.7°F24.8°C 64.5°F18.1°C 66% 3.5 mph SSW5.6 kmh SSW 5.8 mph9.3 kmh 30.12 in1020.0 mb - 0.00 in0.0 mm 0.00 in0.0 mm
09:52 AM 76.3°F24.6°C 64.1°F17.8°C 66% 2.3 mph S3.7 kmh S 4.6 mph7.4 kmh 30.13 in1020.3 mb - 0.00 in0.0 mm 0.00 in0.0 mm
09:42 AM 75.8°F24.3°C 64.1°F17.8°C 67% 4.6 mph S7.4 kmh S 9.2 mph14.8 kmh 30.12 in1020.0 mb - 0.00 in0.0 mm 0.00 in0.0 mm
09:32 AM 75.4°F24.1°C 64.5°F18.1°C 69% 2.3 mph S3.7 kmh S 5.8 mph9.3 kmh 30.12 in1020.0 mb - 0.00 in0.0 mm 0.00 in0.0 mm
09:22 AM 74.7°F23.7°C 64.7°F18.2°C 71% 3.5 mph S5.6 kmh S 6.9 mph11.1 kmh 30.13 in1020.3 mb - 0.00 in0.0 mm 0.00 in0.0 mm
09:12 AM 73.9°F23.3°C 64.7°F18.2°C 73% 2.3 mph SSW3.7 kmh SSW 3.5 mph5.6 kmh 30.13 in1020.3 mb - 0.00 in0.0 mm 0.00 in0.0 mm
09:02 AM 73.3°F22.9°C 64.5°F18.1°C 74% 2.3 mph S3.7 kmh S 4.6 mph7.4 kmh 30.13 in1020.3 mb - 0.00 in0.0 mm 0.00 in0.0 mm
08:52 AM 72.7°F22.6°C 64.7°F18.2°C 76% 2.3 mph S3.7 kmh S 8.1 mph13.0 kmh 30.13 in1020.3 mb - 0.00 in0.0 mm 0.00 in0.0 mm
08:42 AM 71.8°F22.1°C 64.9°F18.3°C 79% 2.3 mph SSE3.7 kmh SSE 3.5 mph5.6 kmh 30.13 in1020.3 mb - 0.00 in0.0 mm 0.00 in0.0 mm
08:32 AM 70.8°F21.6°C 64.7°F18.2°C 81% Calm Calm 4.6 mph7.4 kmh 30.12 in1020.0 mb - 0.00 in0.0 mm 0.00 in0.0 mm
08:22 AM 69.6°F20.9°C 65.2°F18.4°C 86% 2.3 mph S3.7 kmh S 5.8 mph9.3 kmh 30.12 in1020.0 mb - 0.00 in0.0 mm 0.00 in0.0 mm
08:12 AM 68.2°F20.1°C 65.5°F18.6°C 91% Calm Calm 1.2 mph1.9 kmh 30.13 in1020.3 mb - 0.00 in0.0 mm 0.00 in0.0 mm
08:02 AM 66.9°F19.4°C 65.7°F18.7°C 96% 1.2 mph SSE1.9 kmh SSE 3.5 mph5.6 kmh 30.13 in1020.3 mb - 0.00 in0.0 mm 0.00 in0.0 mm
07:52 AM 65.6°F18.7°C 65.3°F18.5°C 99% Calm Calm 1.2 mph1.9 kmh 30.13 in1020.3 mb - 0.00 in0.0 mm 0.00 in0.0 mm
07:42 AM 64.6°F18.1°C 64.6°F18.1°C 100% Calm Calm 2.3 mph3.7 kmh 30.13 in1020.3 mb - 0.00 in0.0 mm 0.00 in0.0 mm
07:32 AM 63.7°F17.6°C 63.7°F17.6°C 100% Calm Calm 3.5 mph5.6 kmh 30.13 in1020.3 mb - 0.00 in0.0 mm 0.00 in0.0 mm
07:22 AM 62.9°F17.2°C 62.9°F17.2°C 100% Calm Calm 2.3 mph3.7 kmh 30.14 in1020.7 mb - 0.00 in0.0 mm 0.00 in0.0 mm
07:12 AM 62.3°F16.8°C 62.3°F16.8°C 100% Calm Calm 2.3 mph3.7 kmh 30.14 in1020.7 mb - 0.00 in0.0 mm 0.00 in0.0 mm
07:02 AM 61.8°F16.6°C 61.8°F16.6°C 100% Calm Calm -- 30.14 in1020.7 mb - 0.00 in0.0 mm 0.00 in0.0 mm
06:52 AM 61.5°F16.4°C 61.5°F16.4°C 100% Calm Calm 1.2 mph1.9 kmh 30.13 in1020.3 mb - 0.00 in0.0 mm 0.00 in0.0 mm
06:42 AM 61.0°F16.1°C 61.0°F16.1°C 100% Calm Calm -- 30.13 in1020.3 mb - 0.00 in0.0 mm 0.00 in0.0 mm
06:32 AM 60.8°F16.0°C 60.8°F16.0°C 100% Calm Calm -- 30.13 in1020.3 mb - 0.00 in0.0 mm 0.00 in0.0 mm
06:22 AM 60.5°F15.8°C 60.5°F15.8°C 100% Calm Calm -- 30.13 in1020.3 mb - 0.00 in0.0 mm 0.00 in0.0 mm
06:12 AM 60.4°F15.8°C 60.1°F15.6°C 99% Calm Calm -- 30.12 in1020.0 mb - 0.00 in0.0 mm 0.00 in0.0 mm
06:02 AM 60.2°F15.7°C 59.6°F15.3°C 98% Calm Calm -- 30.12 in1020.0 mb - 0.00 in0.0 mm 0.00 in0.0 mm
05:52 AM 60.2°F15.7°C 59.6°F15.3°C 98% Calm Calm -- 30.11 in1019.6 mb - 0.00 in0.0 mm 0.00 in0.0 mm
05:42 AM 60.4°F15.8°C 59.5°F15.3°C 97% Calm Calm -- 30.11 in1019.6 mb - 0.00 in0.0 mm 0.00 in0.0 mm
05:32 AM 60.5°F15.8°C 59.6°F15.3°C 97% Calm Calm -- 30.12 in1020.0 mb - 0.00 in0.0 mm 0.00 in0.0 mm
05:22 AM 60.9°F16.1°C 59.8°F15.4°C 96% Calm Calm -- 30.12 in1020.0 mb - 0.00 in0.0 mm 0.00 in0.0 mm
05:12 AM 61.2°F16.2°C 59.8°F15.4°C 95% Calm Calm -- 30.12 in1020.0 mb - 0.00 in0.0 mm 0.00 in0.0 mm
05:02 AM 61.3°F16.3°C 59.6°F15.3°C 94% Calm Calm -- 30.12 in1020.0 mb - 0.00 in0.0 mm 0.00 in0.0 mm
04:52 AM 61.7°F16.5°C 59.7°F15.4°C 93% Calm Calm -- 30.12 in1020.0 mb - 0.00 in0.0 mm 0.00 in0.0 mm
04:42 AM 62.2°F16.8°C 59.8°F15.4°C 92% Calm Calm -- 30.12 in1020.0 mb - 0.00 in0.0 mm 0.00 in0.0 mm
04:32 AM 62.7°F17.1°C 59.7°F15.4°C 90% Calm Calm -- 30.12 in1020.0 mb - 0.00 in0.0 mm 0.00 in0.0 mm
04:22 AM 63.4°F17.4°C 60.1°F15.6°C 89% Calm Calm -- 30.13 in1020.3 mb - 0.00 in0.0 mm 0.00 in0.0 mm
04:12 AM 63.9°F17.7°C 60.6°F15.9°C 89% Calm Calm -- 30.13 in1020.3 mb - 0.00 in0.0 mm 0.00 in0.0 mm
04:02 AM 64.2°F17.9°C 60.6°F15.9°C 88% Calm Calm -- 30.13 in1020.3 mb - 0.00 in0.0 mm 0.00 in0.0 mm
03:52 AM 64.3°F17.9°C 60.7°F15.9°C 88% Calm Calm -- 30.13 in1020.3 mb - 0.00 in0.0 mm 0.00 in0.0 mm
03:42 AM 64.5°F18.1°C 60.9°F16.1°C 88% Calm Calm -- 30.12 in1020.0 mb - 0.00 in0.0 mm 0.00 in0.0 mm
03:32 AM 64.5°F18.1°C 60.5°F15.8°C 87% Calm Calm -- 30.12 in1020.0 mb - 0.00 in0.0 mm 0.00 in0.0 mm
03:22 AM 64.7°F18.2°C 60.7°F15.9°C 87% Calm Calm 1.2 mph1.9 kmh 30.12 in1020.0 mb - 0.00 in0.0 mm 0.00 in0.0 mm
03:12 AM 64.7°F18.2°C 60.7°F15.9°C 87% Calm Calm 1.2 mph1.9 kmh 30.13 in1020.3 mb - 0.00 in0.0 mm 0.00 in0.0 mm
03:02 AM 64.5°F18.1°C 60.2°F15.7°C 86% Calm Calm 2.3 mph3.7 kmh 30.13 in1020.3 mb - 0.00 in0.0 mm 0.00 in0.0 mm
02:52 AM 64.5°F18.1°C 60.2°F15.7°C 86% Calm Calm -- 30.14 in1020.7 mb - 0.00 in0.0 mm 0.00 in0.0 mm
02:42 AM 64.5°F18.1°C 60.2°F15.7°C 86% Calm Calm 3.5 mph5.6 kmh 30.14 in1020.7 mb - 0.00 in0.0 mm 0.00 in0.0 mm
02:32 AM 64.5°F18.1°C 59.9°F15.5°C 85% Calm Calm 2.3 mph3.7 kmh 30.14 in1020.7 mb - 0.00 in0.0 mm 0.00 in0.0 mm
02:22 AM 64.5°F18.1°C 59.9°F15.5°C 85% Calm Calm -- 30.14 in1020.7 mb - 0.00 in0.0 mm 0.00 in0.0 mm
02:12 AM 64.3°F17.9°C 59.7°F15.4°C 85% Calm Calm -- 30.14 in1020.7 mb - 0.00 in0.0 mm 0.00 in0.0 mm
02:02 AM 64.3°F17.9°C 59.7°F15.4°C 85% Calm Calm -- 30.14 in1020.7 mb - 0.00 in0.0 mm 0.00 in0.0 mm
01:52 AM 64.3°F17.9°C 59.7°F15.4°C 85% Calm Calm -- 30.14 in1020.7 mb - 0.00 in0.0 mm 0.00 in0.0 mm
01:42 AM 64.3°F17.9°C 59.7°F15.4°C 85% Calm Calm -- 30.14 in1020.7 mb - 0.00 in0.0 mm 0.00 in0.0 mm
01:32 AM 64.3°F17.9°C 59.7°F15.4°C 85% Calm Calm -- 30.13 in1020.3 mb - 0.00 in0.0 mm 0.00 in0.0 mm
01:22 AM 64.3°F17.9°C 59.7°F15.4°C 85% Calm Calm 2.3 mph3.7 kmh 30.13 in1020.3 mb - 0.00 in0.0 mm 0.00 in0.0 mm
01:12 AM 64.3°F17.9°C 59.7°F15.4°C 85% Calm Calm -- 30.13 in1020.3 mb - 0.00 in0.0 mm 0.00 in0.0 mm
01:02 AM 64.3°F17.9°C 59.4°F15.2°C 84% Calm Calm -- 30.12 in1020.0 mb - 0.00 in0.0 mm 0.00 in0.0 mm
12:52 AM 64.4°F18.0°C 59.5°F15.3°C 84% Calm Calm -- 30.12 in1020.0 mb - 0.00 in0.0 mm 0.00 in0.0 mm
12:42 AM 64.5°F18.1°C 59.6°F15.3°C 84% Calm Calm -- 30.11 in1019.6 mb - 0.00 in0.0 mm 0.00 in0.0 mm
12:32 AM 64.5°F18.1°C 59.6°F15.3°C 84% Calm Calm -- 30.11 in1019.6 mb - 0.00 in0.0 mm 0.00 in0.0 mm
12:22 AM 64.7°F18.2°C 59.8°F15.4°C 84% Calm Calm -- 30.11 in1019.6 mb - 0.00 in0.0 mm 0.00 in0.0 mm
12:12 AM 64.7°F18.2°C 59.4°F15.2°C 83% Calm Calm -- 30.11 in1019.6 mb - 0.00 in0.0 mm 0.00 in0.0 mm
12:02 AM 64.8°F18.2°C 59.5°F15.3°C 83% Calm Calm -- 30.10 in1019.3 mb - 0.00 in0.0 mm 0.00 in0.0 mm